createdAt,value
2023-02-14T00:01:31.671Z,70.38
2023-02-14T00:04:01.619Z,70.41
2023-02-14T00:06:32.683Z,70.20
2023-02-14T00:09:01.114Z,70.15
2023-02-14T00:11:29.911Z,69.93
2023-02-14T00:14:15.579Z,69.33
2023-02-14T00:16:43.749Z,69.46
2023-02-14T00:19:14.968Z,69.04
2023-02-14T00:21:43.461Z,69.22
2023-02-14T00:24:13.610Z,69.25
2023-02-14T00:26:41.855Z,69.08
2023-02-14T00:29:11.250Z,69.10
2023-02-14T00:31:40.458Z,69.52
2023-02-14T00:34:09.374Z,70.00
2023-02-14T00:36:39.627Z,69.76
2023-02-14T00:39:09.267Z,69.67
2023-02-14T00:41:37.460Z,69.56
2023-02-14T00:44:06.386Z,69.82
2023-02-14T00:46:35.287Z,69.65
2023-02-14T00:49:03.400Z,69.51
2023-02-14T00:51:31.946Z,69.63
2023-02-14T00:54:01.898Z,70.09
2023-02-14T00:56:30.282Z,69.98
2023-02-14T00:58:58.401Z,69.71
2023-02-14T01:01:26.668Z,69.68
2023-02-14T01:03:54.955Z,70.02
2023-02-14T01:06:23.060Z,70.24
2023-02-14T01:08:51.170Z,70.43
2023-02-14T01:11:22.382Z,70.42
2023-02-14T01:13:51.542Z,70.12
2023-02-14T01:16:21.298Z,70.00
2023-02-14T01:18:49.905Z,70.15
2023-02-14T01:21:20.861Z,69.82
2023-02-14T01:23:50.654Z,70.06
2023-02-14T01:26:20.484Z,69.78
2023-02-14T01:28:48.768Z,69.91
2023-02-14T01:31:19.589Z,69.50
2023-02-14T01:33:49.239Z,69.35
2023-02-14T01:36:18.550Z,69.36
2023-02-14T01:38:46.739Z,69.58
2023-02-14T01:41:15.281Z,69.16
2023-02-14T01:43:57.433Z,68.79
2023-02-14T01:46:27.095Z,68.67
2023-02-14T01:48:58.654Z,68.74
2023-02-14T01:51:27.029Z,68.75
2023-02-14T01:53:55.601Z,68.85
2023-02-14T01:56:28.450Z,69.09
2023-02-14T01:59:01.141Z,69.24
2023-02-14T02:01:30.770Z,69.16
2023-02-14T02:04:02.278Z,69.26
2023-02-14T02:06:32.894Z,69.25
2023-02-14T02:09:08.240Z,69.04
2023-02-14T02:11:36.674Z,69.22
2023-02-14T02:14:15.027Z,69.39
2023-02-14T02:16:56.689Z,69.52
2023-02-14T02:20:13.190Z,69.73
2023-02-14T02:23:27.821Z,69.90
2023-02-14T02:26:25.904Z,69.49
2023-02-14T02:29:16.838Z,69.10
2023-02-14T02:32:10.411Z,69.32
2023-02-14T02:35:13.195Z,69.50
2023-02-14T02:37:47.571Z,69.51
2023-02-14T02:40:28.266Z,70.01
2023-02-14T02:43:02.656Z,70.03
2023-02-14T02:46:00.295Z,69.92
2023-02-14T02:48:35.705Z,69.74
2023-02-14T02:51:25.606Z,69.55
2023-02-14T02:53:56.048Z,69.75
2023-02-14T02:56:44.918Z,69.29
2023-02-14T02:59:18.398Z,69.16
2023-02-14T03:01:50.833Z,69.23
2023-02-14T03:04:37.802Z,69.06
2023-02-14T03:07:27.948Z,68.99
2023-02-14T03:09:58.624Z,69.12
2023-02-14T03:12:50.193Z,69.09
2023-02-14T03:15:23.436Z,69.05
2023-02-14T03:18:03.207Z,69.28
2023-02-14T03:20:37.781Z,69.00
2023-02-14T03:23:11.813Z,69.04
2023-02-14T03:25:44.976Z,69.13
2023-02-14T03:28:18.811Z,69.36
2023-02-14T03:30:51.722Z,69.61
2023-02-14T03:33:24.052Z,69.31
2023-02-14T03:35:56.386Z,69.56
2023-02-14T03:38:29.061Z,69.61
2023-02-14T03:41:00.861Z,69.49
2023-02-14T03:43:32.148Z,69.81
2023-02-14T03:46:06.897Z,69.65
2023-02-14T03:48:36.156Z,69.56
2023-02-14T03:51:05.943Z,69.72
2023-02-14T03:53:37.902Z,69.54
2023-02-14T03:56:11.982Z,69.79
2023-02-14T03:58:41.895Z,70.18
2023-02-14T04:01:14.647Z,70.16
2023-02-14T04:03:43.954Z,70.16
2023-02-14T04:06:12.179Z,70.35
2023-02-14T04:08:41.660Z,70.46
2023-02-14T04:11:09.792Z,70.66
2023-02-14T04:13:38.491Z,70.57
2023-02-14T04:16:07.521Z,70.53
2023-02-14T04:18:53.245Z,70.54
2023-02-14T04:21:22.119Z,70.88
2023-02-14T04:23:51.582Z,70.86
2023-02-14T04:26:19.706Z,70.45
2023-02-14T04:28:47.822Z,70.48
2023-02-14T04:31:16.032Z,70.61
2023-02-14T04:33:46.021Z,70.95
2023-02-14T04:36:14.118Z,70.88
2023-02-14T04:38:42.408Z,70.88
2023-02-14T04:41:11.866Z,70.93
2023-02-14T04:43:39.966Z,70.79
2023-02-14T04:46:08.140Z,70.76
2023-02-14T04:48:36.271Z,70.97
2023-02-14T04:51:04.707Z,71.02
2023-02-14T04:53:32.814Z,71.21
2023-02-14T04:56:00.905Z,71.15
2023-02-14T04:58:30.358Z,71.16
2023-02-14T05:00:58.896Z,71.16
2023-02-14T05:03:27.291Z,70.96
2023-02-14T05:05:55.352Z,71.22
2023-02-14T05:08:23.435Z,71.34
2023-02-14T05:10:51.514Z,71.18
2023-02-14T05:13:19.592Z,71.26
2023-02-14T05:15:49.035Z,71.00
2023-02-14T05:18:17.126Z,71.12
2023-02-14T05:20:45.204Z,71.06
2023-02-14T05:23:13.962Z,71.00
2023-02-14T05:25:42.306Z,70.97
2023-02-14T05:28:10.945Z,70.95
2023-02-14T05:30:39.230Z,70.99
2023-02-14T05:33:08.846Z,70.99
2023-02-14T05:35:37.323Z,70.89
2023-02-14T05:38:05.808Z,70.75
2023-02-14T05:40:34.063Z,70.53
2023-02-14T05:43:02.194Z,70.33
2023-02-14T05:45:30.407Z,70.34
2023-02-14T05:47:58.590Z,70.31
2023-02-14T05:50:28.221Z,70.52
2023-02-14T05:52:56.354Z,70.55
2023-02-14T05:55:24.674Z,70.80
2023-02-14T05:57:52.802Z,70.98
2023-02-14T06:00:22.430Z,71.18
2023-02-14T06:02:50.512Z,71.26
2023-02-14T06:05:20.109Z,71.24
2023-02-14T06:07:51.396Z,70.97
2023-02-14T06:10:20.437Z,70.94
2023-02-14T06:12:50.378Z,71.03
2023-02-14T06:15:18.721Z,70.93
2023-02-14T06:17:47.579Z,70.98
2023-02-14T06:20:15.768Z,70.86
2023-02-14T06:22:43.859Z,70.97
2023-02-14T06:25:13.355Z,70.90
2023-02-14T06:27:41.478Z,70.88
2023-02-14T06:30:10.802Z,70.70
2023-02-14T06:32:38.890Z,70.42
2023-02-14T06:35:07.824Z,70.72
2023-02-14T06:37:36.010Z,71.00
2023-02-14T06:40:04.091Z,71.12
2023-02-14T06:42:33.704Z,71.15
2023-02-14T06:45:02.564Z,70.97
2023-02-14T06:47:30.630Z,70.81
2023-02-14T06:49:59.981Z,70.52
2023-02-14T06:52:28.166Z,70.62
2023-02-14T06:54:56.283Z,70.70
2023-02-14T06:57:24.342Z,70.85
2023-02-14T06:59:53.838Z,71.12
2023-02-14T07:02:24.797Z,71.12
2023-02-14T07:04:53.287Z,71.06
2023-02-14T07:07:21.395Z,71.05
2023-02-14T07:09:49.489Z,70.88
2023-02-14T07:12:17.606Z,70.76
2023-02-14T07:14:45.670Z,71.09
2023-02-14T07:17:15.278Z,70.37
2023-02-14T07:19:43.387Z,70.25
2023-02-14T07:22:11.485Z,70.20
2023-02-14T07:24:39.591Z,70.45
2023-02-14T07:27:07.711Z,70.32
2023-02-14T07:29:36.062Z,70.44
2023-02-14T07:32:04.506Z,70.60
2023-02-14T07:34:34.071Z,70.32
2023-02-14T07:37:02.594Z,70.07
2023-02-14T07:39:30.750Z,70.00
2023-02-14T07:41:58.839Z,70.09
2023-02-14T07:44:27.068Z,70.18
2023-02-14T07:46:55.141Z,70.13
2023-02-14T07:49:23.494Z,69.88
2023-02-14T07:51:53.144Z,69.73
2023-02-14T07:54:21.345Z,69.83
2023-02-14T07:56:49.436Z,69.68
2023-02-14T07:59:17.536Z,69.77
2023-02-14T08:01:45.871Z,69.54
2023-02-14T08:04:14.657Z,69.50
2023-02-14T08:06:43.198Z,69.37
2023-02-14T08:09:24.565Z,69.41
2023-02-14T08:12:10.353Z,69.65
2023-02-14T08:14:38.503Z,69.60
2023-02-14T08:17:07.472Z,69.70
2023-02-14T08:19:35.653Z,70.09
2023-02-14T08:22:03.814Z,70.17
2023-02-14T08:24:33.488Z,70.03
2023-02-14T08:27:01.593Z,69.87
2023-02-14T08:29:29.662Z,69.58
2023-02-14T08:32:00.346Z,69.32
2023-02-14T08:34:28.656Z,68.90
2023-02-14T08:36:56.750Z,68.70
2023-02-14T08:39:24.886Z,68.99
2023-02-14T08:41:54.337Z,68.42
2023-02-14T08:44:22.463Z,68.50
2023-02-14T08:46:50.593Z,68.40
2023-02-14T08:49:18.788Z,68.63
2023-02-14T08:51:46.867Z,68.73
2023-02-14T08:54:14.983Z,68.17
2023-02-14T08:56:43.083Z,67.42
2023-02-14T08:59:12.602Z,67.49
2023-02-14T09:01:40.719Z,67.32
2023-02-14T09:04:08.860Z,67.29
2023-02-14T09:06:38.849Z,67.30
2023-02-14T09:09:07.204Z,67.25
2023-02-14T09:11:36.165Z,67.08
2023-02-14T09:14:04.303Z,66.83
2023-02-14T09:16:33.827Z,67.02
2023-02-14T09:19:02.247Z,67.18
2023-02-14T09:21:30.576Z,67.05
2023-02-14T09:23:59.467Z,67.02
2023-02-14T09:26:28.741Z,66.83
2023-02-14T09:28:57.666Z,66.69
2023-02-14T09:31:26.345Z,66.90
2023-02-14T09:34:13.122Z,66.59
2023-02-14T09:36:58.719Z,66.83
2023-02-14T09:39:26.799Z,66.65
2023-02-14T09:42:16.346Z,66.91
2023-02-14T09:44:48.715Z,66.94
2023-02-14T09:47:23.388Z,66.51
2023-02-14T09:49:53.835Z,66.38
2023-02-14T09:52:27.012Z,66.23
2023-02-14T09:54:58.525Z,66.21
2023-02-14T09:57:38.675Z,66.14
2023-02-14T10:00:17.700Z,66.06
2023-02-14T10:02:58.662Z,66.00
2023-02-14T10:05:29.914Z,66.08
2023-02-14T10:08:02.008Z,65.60
2023-02-14T10:10:32.941Z,65.79
2023-02-14T10:13:06.589Z,65.65
2023-02-14T10:15:38.269Z,65.57
2023-02-14T10:18:12.189Z,65.89
2023-02-14T10:20:44.696Z,66.29
2023-02-14T10:23:31.429Z,65.60
2023-02-14T10:26:02.838Z,65.18
2023-02-14T10:28:33.734Z,65.69
2023-02-14T10:31:19.546Z,65.62
2023-02-14T10:33:57.488Z,65.16
2023-02-14T10:36:53.951Z,65.36
2023-02-14T10:39:34.559Z,65.38
2023-02-14T10:42:11.260Z,65.49
2023-02-14T10:44:46.731Z,65.40
2023-02-14T10:47:36.809Z,65.34
2023-02-14T10:50:12.334Z,65.62
2023-02-14T10:52:46.837Z,65.36
2023-02-14T10:55:31.887Z,65.51
2023-02-14T10:58:04.089Z,65.48
2023-02-14T11:00:34.865Z,64.83
2023-02-14T11:03:06.244Z,65.19
2023-02-14T11:05:36.988Z,65.12
2023-02-14T11:08:15.377Z,65.38
2023-02-14T11:10:43.555Z,65.21
2023-02-14T11:13:33.774Z,65.25
2023-02-14T11:16:03.902Z,65.28
2023-02-14T11:18:36.835Z,65.10
2023-02-14T11:21:07.965Z,64.77
2023-02-14T11:23:40.110Z,64.77
2023-02-14T11:26:17.733Z,65.49
2023-02-14T11:28:51.363Z,64.82
2023-02-14T11:31:27.822Z,64.17
2023-02-14T11:33:56.596Z,64.43
2023-02-14T11:36:24.884Z,64.05
2023-02-14T11:39:03.076Z,64.25
2023-02-14T11:41:47.772Z,64.58
2023-02-14T11:44:22.483Z,62.31
2023-02-14T11:46:53.334Z,61.74
2023-02-14T11:49:29.181Z,61.08
2023-02-14T11:51:58.210Z,61.02
2023-02-14T11:54:32.873Z,61.05
2023-02-14T11:57:05.194Z,61.11
2023-02-14T11:59:36.800Z,61.84
2023-02-14T12:02:14.961Z,62.10
2023-02-14T12:04:46.736Z,62.48
2023-02-14T12:07:18.482Z,62.58
2023-02-14T12:09:49.300Z,62.35
2023-02-14T12:12:20.688Z,60.96
2023-02-14T12:14:48.844Z,59.78
2023-02-14T12:17:26.414Z,59.29
2023-02-14T12:20:00.170Z,59.03
2023-02-14T12:22:32.414Z,59.05
2023-02-14T12:25:07.524Z,59.18
2023-02-14T12:27:45.976Z,59.33
2023-02-14T12:30:16.616Z,59.30
2023-02-14T12:32:48.822Z,59.52
2023-02-14T12:35:21.248Z,58.94
2023-02-14T12:38:04.967Z,59.29
2023-02-14T12:40:45.164Z,58.65
2023-02-14T12:43:50.576Z,57.55
2023-02-14T12:46:45.335Z,57.31
2023-02-14T12:49:26.128Z,57.94
2023-02-14T12:52:03.249Z,57.38
2023-02-14T12:54:40.177Z,57.36
2023-02-14T12:57:17.948Z,57.63
2023-02-14T12:59:56.644Z,57.27
2023-02-14T13:02:50.184Z,57.27
2023-02-14T13:05:23.757Z,57.50
2023-02-14T13:08:16.042Z,57.82
2023-02-14T13:10:54.740Z,57.56
2023-02-14T13:13:31.315Z,57.39
2023-02-14T13:16:07.068Z,57.79
2023-02-14T13:18:40.982Z,57.95
2023-02-14T13:21:11.669Z,57.87
2023-02-14T13:23:41.583Z,57.40
2023-02-14T13:26:14.020Z,56.92
2023-02-14T13:28:48.852Z,56.54
2023-02-14T13:31:17.340Z,56.50
2023-02-14T13:33:49.626Z,56.25
2023-02-14T13:36:17.894Z,55.45
2023-02-14T13:38:49.270Z,55.05
2023-02-14T13:41:18.591Z,54.95
2023-02-14T13:43:53.324Z,55.62
2023-02-14T13:46:23.567Z,55.30
2023-02-14T13:49:00.341Z,55.24
2023-02-14T13:51:56.136Z,54.66
2023-02-14T13:54:41.278Z,54.49
2023-02-14T13:57:28.127Z,54.42
2023-02-14T14:00:43.937Z,54.66
2023-02-14T14:03:16.280Z,54.28
2023-02-14T14:05:49.508Z,54.36
2023-02-14T14:08:47.369Z,53.57
2023-02-14T14:11:59.542Z,53.16
2023-02-14T14:14:36.493Z,52.64
2023-02-14T14:17:21.815Z,52.89
2023-02-14T14:19:51.726Z,53.00
2023-02-14T14:22:20.815Z,52.66
2023-02-14T14:25:02.541Z,52.78
2023-02-14T14:27:34.476Z,53.35
2023-02-14T14:30:04.539Z,53.91
2023-02-14T14:32:34.401Z,54.40
2023-02-14T14:35:06.500Z,54.88
2023-02-14T14:37:35.603Z,55.78
2023-02-14T14:40:06.703Z,56.72
2023-02-14T14:42:37.111Z,57.59
2023-02-14T14:45:08.063Z,58.21
2023-02-14T14:47:41.512Z,59.12
2023-02-14T14:50:17.530Z,60.01
2023-02-14T14:52:48.365Z,60.40
2023-02-14T14:55:20.022Z,60.64
2023-02-14T14:57:51.346Z,61.23
2023-02-14T15:00:27.256Z,61.45
2023-02-14T15:03:04.106Z,61.59
2023-02-14T15:05:36.547Z,62.21
2023-02-14T15:08:21.410Z,63.12
2023-02-14T15:10:52.306Z,63.31
2023-02-14T15:13:37.932Z,63.82
2023-02-14T15:16:06.388Z,64.50
2023-02-14T15:18:34.540Z,65.37
2023-02-14T15:21:04.566Z,65.94
2023-02-14T15:23:33.061Z,66.27
2023-02-14T15:26:01.935Z,66.57
2023-02-14T15:28:32.360Z,66.84
2023-02-14T15:31:02.846Z,67.29
2023-02-14T15:33:32.493Z,67.47
2023-02-14T15:36:04.058Z,67.72
2023-02-14T15:38:33.852Z,67.84
2023-02-14T15:41:02.639Z,68.10
2023-02-14T15:43:32.802Z,68.41
2023-02-14T15:46:14.306Z,68.77
2023-02-14T15:48:42.747Z,69.19
2023-02-14T15:51:20.137Z,69.21
2023-02-14T15:53:52.746Z,69.75
2023-02-14T15:56:24.935Z,69.67
2023-02-14T15:59:00.617Z,70.19
2023-02-14T16:01:29.632Z,70.41
2023-02-14T16:04:00.534Z,70.48
2023-02-14T16:06:36.386Z,70.71
2023-02-14T16:09:05.971Z,71.17
2023-02-14T16:11:37.110Z,71.42
2023-02-14T16:14:35.151Z,71.84
2023-02-14T16:17:05.309Z,71.89
2023-02-14T16:19:35.650Z,72.49
2023-02-14T16:22:07.078Z,72.54
2023-02-14T16:24:36.010Z,72.67
2023-02-14T16:27:06.909Z,73.04
2023-02-14T16:29:36.361Z,73.27
2023-02-14T16:32:16.109Z,73.65
2023-02-14T16:34:47.376Z,73.87
2023-02-14T16:37:24.700Z,74.26
2023-02-14T16:39:54.836Z,74.29
2023-02-14T16:42:23.142Z,74.37
2023-02-14T16:44:51.336Z,74.43
2023-02-14T16:47:20.905Z,74.64
2023-02-14T16:49:50.643Z,75.21
2023-02-14T16:52:23.470Z,75.34
2023-02-14T16:54:53.480Z,75.63
2023-02-14T16:57:23.786Z,75.85
2023-02-14T16:59:51.993Z,76.24
2023-02-14T17:02:20.353Z,76.52
2023-02-14T17:04:48.484Z,76.83
2023-02-14T17:07:17.053Z,77.05
2023-02-14T17:09:49.439Z,77.23
2023-02-14T17:12:22.176Z,77.46
2023-02-14T17:14:54.669Z,77.75
2023-02-14T17:17:22.997Z,77.90
2023-02-14T17:19:52.856Z,77.88
2023-02-14T17:22:21.417Z,78.11
2023-02-14T17:24:49.510Z,77.87
2023-02-14T17:27:19.007Z,77.72
2023-02-14T17:29:47.114Z,77.94
2023-02-14T17:32:15.900Z,78.12
2023-02-14T17:34:44.308Z,77.99
2023-02-14T17:37:12.412Z,77.92
2023-02-14T17:39:40.555Z,78.01
2023-02-14T17:42:11.027Z,78.38
2023-02-14T17:44:41.389Z,78.81
2023-02-14T17:47:09.459Z,78.68
2023-02-14T17:49:37.959Z,78.72
2023-02-14T17:52:06.454Z,78.70
2023-02-14T17:54:38.025Z,78.76
2023-02-14T17:57:06.231Z,79.30
2023-02-14T17:59:34.338Z,79.35
2023-02-14T18:02:03.869Z,79.42
2023-02-14T18:04:33.526Z,79.46
2023-02-14T18:07:01.653Z,79.83
2023-02-14T18:09:29.912Z,79.94
2023-02-14T18:11:58.619Z,80.16
2023-02-14T18:14:26.750Z,80.17
2023-02-14T18:16:54.806Z,80.12
2023-02-14T18:19:24.286Z,80.07
2023-02-14T18:21:52.339Z,80.19
2023-02-14T18:24:20.497Z,80.22
2023-02-14T18:26:48.614Z,80.20
2023-02-14T18:29:16.744Z,79.81
2023-02-14T18:31:45.401Z,79.88
2023-02-14T18:34:13.802Z,79.84
2023-02-14T18:36:43.364Z,80.14
2023-02-14T18:39:11.818Z,80.16
2023-02-14T18:41:39.884Z,79.97
2023-02-14T18:44:08.044Z,79.81
2023-02-14T18:46:36.744Z,79.78
2023-02-14T18:49:07.137Z,80.14
2023-02-14T18:51:37.261Z,80.12
2023-02-14T18:54:07.501Z,80.00
2023-02-14T18:56:37.811Z,79.68
2023-02-14T18:59:07.979Z,79.68
2023-02-14T19:01:37.834Z,79.76
2023-02-14T19:04:08.606Z,79.41
2023-02-14T19:06:36.998Z,79.64
2023-02-14T19:09:09.877Z,79.79
2023-02-14T19:11:38.369Z,79.70
2023-02-14T19:14:10.288Z,79.69
2023-02-14T19:16:39.976Z,79.89
2023-02-14T19:19:08.469Z,79.97
2023-02-14T19:21:36.779Z,80.00
2023-02-14T19:24:08.041Z,80.21
2023-02-14T19:26:40.154Z,80.37
2023-02-14T19:29:10.591Z,80.67
2023-02-14T19:31:40.995Z,80.67
2023-02-14T19:34:15.725Z,80.72
2023-02-14T19:36:43.867Z,80.76
2023-02-14T19:39:14.079Z,80.94
2023-02-14T19:41:42.521Z,81.17
2023-02-14T19:44:14.196Z,81.15
2023-02-14T19:46:43.357Z,81.64
2023-02-14T19:49:14.390Z,82.81
2023-02-14T19:51:42.817Z,83.91
2023-02-14T19:54:10.921Z,83.91
2023-02-14T19:56:41.956Z,83.36
2023-02-14T19:59:10.705Z,83.31
2023-02-14T20:01:41.952Z,83.29
2023-02-14T20:04:13.712Z,83.05
2023-02-14T20:06:42.672Z,82.86
2023-02-14T20:09:10.925Z,82.93
2023-02-14T20:11:46.429Z,82.58
2023-02-14T20:14:18.401Z,82.28
2023-02-14T20:16:47.268Z,81.90
2023-02-14T20:19:17.734Z,81.90
2023-02-14T20:21:47.119Z,82.08
2023-02-14T20:24:20.410Z,82.04
2023-02-14T20:26:50.736Z,82.16
2023-02-14T20:29:20.112Z,81.99
2023-02-14T20:31:49.687Z,82.14
2023-02-14T20:34:20.991Z,82.28
2023-02-14T20:36:53.047Z,82.22
2023-02-14T20:39:22.511Z,82.16
2023-02-14T20:41:53.110Z,82.21
2023-02-14T20:44:21.644Z,82.32
2023-02-14T20:46:50.433Z,82.18
2023-02-14T20:49:19.018Z,82.22
2023-02-14T20:51:49.621Z,82.36
2023-02-14T20:54:18.133Z,82.66
2023-02-14T20:56:46.270Z,83.20
2023-02-14T20:59:16.076Z,83.21
2023-02-14T21:01:44.231Z,82.93
2023-02-14T21:04:14.031Z,82.99
2023-02-14T21:06:42.214Z,82.80
2023-02-14T21:09:10.298Z,83.10
2023-02-14T21:11:38.352Z,83.20
2023-02-14T21:14:06.570Z,83.69
2023-02-14T21:16:36.036Z,83.62
2023-02-14T21:19:04.804Z,83.34
2023-02-14T21:21:36.025Z,83.21
2023-02-14T21:24:06.338Z,83.19
2023-02-14T21:26:34.642Z,83.10
2023-02-14T21:29:02.779Z,83.50
2023-02-14T21:31:31.081Z,83.63
2023-02-14T21:34:01.855Z,83.46
2023-02-14T21:36:31.599Z,83.44
2023-02-14T21:39:00.876Z,83.45
2023-02-14T21:41:30.301Z,83.00
2023-02-14T21:43:59.775Z,82.97
2023-02-14T21:46:31.049Z,82.75
2023-02-14T21:49:18.910Z,82.75
2023-02-14T21:51:47.396Z,82.52
2023-02-14T21:54:16.024Z,82.74
2023-02-14T21:56:44.227Z,82.80
2023-02-14T21:59:12.674Z,82.93
2023-02-14T22:01:42.207Z,82.77
2023-02-14T22:04:12.859Z,82.79
2023-02-14T22:06:43.106Z,83.30
2023-02-14T22:09:13.297Z,83.52
2023-02-14T22:11:41.708Z,83.46
2023-02-14T22:14:09.843Z,83.44
2023-02-14T22:16:38.129Z,83.92
2023-02-14T22:19:06.851Z,84.09
2023-02-14T22:21:36.317Z,84.06
2023-02-14T22:24:04.960Z,84.15
2023-02-14T22:26:35.420Z,84.08
2023-02-14T22:29:04.226Z,83.78
2023-02-14T22:31:35.315Z,83.60
2023-02-14T22:34:03.466Z,83.62
2023-02-14T22:36:31.819Z,83.45
2023-02-14T22:39:01.278Z,83.49
2023-02-14T22:41:29.411Z,83.35
2023-02-14T22:43:58.291Z,83.32
2023-02-14T22:46:28.473Z,83.42
2023-02-14T22:48:57.659Z,83.77
2023-02-14T22:51:28.366Z,83.63
2023-02-14T22:53:58.192Z,83.67
2023-02-14T22:56:28.737Z,83.57
2023-02-14T22:58:57.793Z,83.64
2023-02-14T23:01:26.434Z,83.62
2023-02-14T23:03:56.132Z,83.46
2023-02-14T23:06:24.419Z,83.45
2023-02-14T23:08:53.077Z,83.41
2023-02-14T23:11:24.337Z,83.31
2023-02-14T23:14:11.541Z,83.11
2023-02-14T23:16:57.034Z,83.19
2023-02-14T23:19:43.511Z,83.54
2023-02-14T23:22:13.633Z,83.76
2023-02-14T23:24:42.120Z,83.89
2023-02-14T23:27:10.833Z,84.03
2023-02-14T23:29:40.287Z,84.00
2023-02-14T23:32:08.955Z,83.71
2023-02-14T23:34:38.953Z,83.53
2023-02-14T23:37:08.258Z,83.39
2023-02-14T23:39:37.656Z,83.28
2023-02-14T23:42:07.202Z,83.11
2023-02-14T23:44:36.180Z,83.10
2023-02-14T23:47:07.195Z,83.26
2023-02-14T23:49:36.683Z,83.43
2023-02-14T23:52:06.400Z,83.66
2023-02-14T23:54:34.912Z,83.58
2023-02-14T23:57:03.488Z,83.52
2023-02-14T23:59:31.868Z,83.44
